sensor_id;sensor_type;location;lat;lon;timestamp;temperature;humidity
14103;DHT22;7129;48.832;12.472;2022-09-09T00:04:39;15.20;99.90
14103;DHT22;7129;48.832;12.472;2022-09-09T00:09:46;15.20;99.90
14103;DHT22;7129;48.832;12.472;2022-09-09T00:14:53;15.10;99.90
14103;DHT22;7129;48.832;12.472;2022-09-09T00:20:02;15.00;99.90
14103;DHT22;7129;48.832;12.472;2022-09-09T00:25:11;14.90;99.90
14103;DHT22;7129;48.832;12.472;2022-09-09T00:30:16;14.90;99.90
14103;DHT22;7129;48.832;12.472;2022-09-09T00:35:25;14.80;99.90
14103;DHT22;7129;48.832;12.472;2022-09-09T00:40:33;14.70;99.90
14103;DHT22;7129;48.832;12.472;2022-09-09T00:45:52;14.60;99.90
14103;DHT22;7129;48.832;12.472;2022-09-09T00:51:05;14.60;99.90
14103;DHT22;7129;48.832;12.472;2022-09-09T00:56:13;14.60;99.90
14103;DHT22;7129;48.832;12.472;2022-09-09T01:01:16;14.60;99.90
14103;DHT22;7129;48.832;12.472;2022-09-09T01:06:24;14.60;99.90
14103;DHT22;7129;48.832;12.472;2022-09-09T01:11:36;14.60;99.90
14103;DHT22;7129;48.832;12.472;2022-09-09T01:16:40;14.60;99.90
14103;DHT22;7129;48.832;12.472;2022-09-09T01:22:00;14.70;99.90
14103;DHT22;7129;48.832;12.472;2022-09-09T01:27:06;14.60;99.90
14103;DHT22;7129;48.832;12.472;2022-09-09T01:32:39;14.50;99.90
14103;DHT22;7129;48.832;12.472;2022-09-09T01:37:42;14.50;99.90
14103;DHT22;7129;48.832;12.472;2022-09-09T01:42:45;14.40;99.90
14103;DHT22;7129;48.832;12.472;2022-09-09T01:47:47;14.30;99.90
14103;DHT22;7129;48.832;12.472;2022-09-09T01:52:52;14.40;99.90
14103;DHT22;7129;48.832;12.472;2022-09-09T01:58:06;14.50;99.90
14103;DHT22;7129;48.832;12.472;2022-09-09T02:03:19;14.50;99.90
14103;DHT22;7129;48.832;12.472;2022-09-09T02:08:25;14.30;99.90
14103;DHT22;7129;48.832;12.472;2022-09-09T02:13:32;14.30;99.90
14103;DHT22;7129;48.832;12.472;2022-09-09T02:18:40;14.30;99.90
14103;DHT22;7129;48.832;12.472;2022-09-09T02:23:59;14.20;99.90
14103;DHT22;7129;48.832;12.472;2022-09-09T02:29:09;14.20;99.90
14103;DHT22;7129;48.832;12.472;2022-09-09T02:34:14;14.20;99.90
14103;DHT22;7129;48.832;12.472;2022-09-09T02:39:18;14.40;99.90
14103;DHT22;7129;48.832;12.472;2022-09-09T02:44:26;14.50;99.90
14103;DHT22;7129;48.832;12.472;2022-09-09T02:49:33;14.60;99.90
14103;DHT22;7129;48.832;12.472;2022-09-09T02:54:41;14.60;99.90
14103;DHT22;7129;48.832;12.472;2022-09-09T02:59:48;14.70;99.90
14103;DHT22;7129;48.832;12.472;2022-09-09T03:04:52;14.60;99.90
14103;DHT22;7129;48.832;12.472;2022-09-09T03:09:54;14.70;99.90
14103;DHT22;7129;48.832;12.472;2022-09-09T03:15:00;14.70;99.90
14103;DHT22;7129;48.832;12.472;2022-09-09T03:20:02;14.80;99.90
14103;DHT22;7129;48.832;12.472;2022-09-09T03:25:06;14.80;99.90
14103;DHT22;7129;48.832;12.472;2022-09-09T03:30:10;14.80;99.90
14103;DHT22;7129;48.832;12.472;2022-09-09T03:35:12;14.80;99.90
14103;DHT22;7129;48.832;12.472;2022-09-09T03:40:14;14.80;99.90
14103;DHT22;7129;48.832;12.472;2022-09-09T03:45:18;14.70;99.90
14103;DHT22;7129;48.832;12.472;2022-09-09T03:50:20;14.60;99.90
14103;DHT22;7129;48.832;12.472;2022-09-09T03:55:31;14.60;99.90
14103;DHT22;7129;48.832;12.472;2022-09-09T04:00:34;14.40;99.90
14103;DHT22;7129;48.832;12.472;2022-09-09T04:05:36;14.30;99.90
14103;DHT22;7129;48.832;12.472;2022-09-09T04:10:40;14.30;99.90
14103;DHT22;7129;48.832;12.472;2022-09-09T04:15:44;14.20;99.90
14103;DHT22;7129;48.832;12.472;2022-09-09T04:20:46;14.10;99.90
14103;DHT22;7129;48.832;12.472;2022-09-09T04:25:50;14.00;99.90
14103;DHT22;7129;48.832;12.472;2022-09-09T04:31:05;13.90;99.90
14103;DHT22;7129;48.832;12.472;2022-09-09T04:36:08;13.70;99.90
14103;DHT22;7129;48.832;12.472;2022-09-09T04:41:24;13.80;99.90
14103;DHT22;7129;48.832;12.472;2022-09-09T04:46:27;13.70;99.90
14103;DHT22;7129;48.832;12.472;2022-09-09T04:51:29;13.70;99.90
14103;DHT22;7129;48.832;12.472;2022-09-09T04:56:31;13.60;99.90
14103;DHT22;7129;48.832;12.472;2022-09-09T05:01:35;13.70;99.90
14103;DHT22;7129;48.832;12.472;2022-09-09T05:06:37;13.60;99.90
14103;DHT22;7129;48.832;12.472;2022-09-09T05:11:39;13.70;99.90
14103;DHT22;7129;48.832;12.472;2022-09-09T05:16:45;13.70;99.90
14103;DHT22;7129;48.832;12.472;2022-09-09T05:21:48;13.80;99.90
14103;DHT22;7129;48.832;12.472;2022-09-09T05:26:50;13.70;99.90
14103;DHT22;7129;48.832;12.472;2022-09-09T05:31:53;13.80;99.90
14103;DHT22;7129;48.832;12.472;2022-09-09T05:36:56;13.70;99.90
14103;DHT22;7129;48.832;12.472;2022-09-09T05:41:58;13.70;99.90
14103;DHT22;7129;48.832;12.472;2022-09-09T05:47:03;13.50;99.90
14103;DHT22;7129;48.832;12.472;2022-09-09T05:52:05;13.50;99.90
14103;DHT22;7129;48.832;12.472;2022-09-09T05:57:07;13.70;99.90
14103;DHT22;7129;48.832;12.472;2022-09-09T06:02:10;13.70;99.90
14103;DHT22;7129;48.832;12.472;2022-09-09T06:07:13;13.80;99.90
14103;DHT22;7129;48.832;12.472;2022-09-09T06:12:16;13.90;99.90
14103;DHT22;7129;48.832;12.472;2022-09-09T06:17:19;14.10;99.90
14103;DHT22;7129;48.832;12.472;2022-09-09T06:22:22;15.70;99.90
14103;DHT22;7129;48.832;12.472;2022-09-09T06:27:24;17.50;99.90
14103;DHT22;7129;48.832;12.472;2022-09-09T06:32:28;19.50;99.90
14103;DHT22;7129;48.832;12.472;2022-09-09T06:37:30;20.90;99.90
14103;DHT22;7129;48.832;12.472;2022-09-09T06:42:32;22.80;99.50
14103;DHT22;7129;48.832;12.472;2022-09-09T06:47:35;22.10;98.30
14103;DHT22;7129;48.832;12.472;2022-09-09T06:52:37;20.70;99.20
14103;DHT22;7129;48.832;12.472;2022-09-09T06:57:39;19.70;99.90
14103;DHT22;7129;48.832;12.472;2022-09-09T07:02:42;18.30;99.90
14103;DHT22;7129;48.832;12.472;2022-09-09T07:08:14;17.20;99.90
14103;DHT22;7129;48.832;12.472;2022-09-09T07:13:17;17.00;99.90
14103;DHT22;7129;48.832;12.472;2022-09-09T07:24:18;17.00;99.90
14103;DHT22;7129;48.832;12.472;2022-09-09T07:29:20;16.50;99.90
14103;DHT22;7129;48.832;12.472;2022-09-09T07:34:22;15.90;99.90
14103;DHT22;7129;48.832;12.472;2022-09-09T07:39:29;16.10;99.90
14103;DHT22;7129;48.832;12.472;2022-09-09T07:44:31;16.60;99.90
14103;DHT22;7129;48.832;12.472;2022-09-09T07:49:35;17.20;99.90
14103;DHT22;7129;48.832;12.472;2022-09-09T07:54:38;17.60;99.90
14103;DHT22;7129;48.832;12.472;2022-09-09T07:59:40;18.00;99.90
14103;DHT22;7129;48.832;12.472;2022-09-09T08:04:42;18.10;99.90
14103;DHT22;7129;48.832;12.472;2022-09-09T08:09:45;17.80;99.90
14103;DHT22;7129;48.832;12.472;2022-09-09T08:14:47;17.30;99.90
14103;DHT22;7129;48.832;12.472;2022-09-09T08:19:50;17.30;99.90
14103;DHT22;7129;48.832;12.472;2022-09-09T08:24:53;17.30;99.90
14103;DHT22;7129;48.832;12.472;2022-09-09T08:29:55;17.30;99.90
14103;DHT22;7129;48.832;12.472;2022-09-09T08:34:57;17.30;99.90
14103;DHT22;7129;48.832;12.472;2022-09-09T08:40:00;17.20;99.90
14103;DHT22;7129;48.832;12.472;2022-09-09T08:45:14;17.10;99.90
14103;DHT22;7129;48.832;12.472;2022-09-09T08:50:23;17.10;99.90
14103;DHT22;7129;48.832;12.472;2022-09-09T08:55:37;16.80;99.90
14103;DHT22;7129;48.832;12.472;2022-09-09T09:00:50;16.90;99.90
14103;DHT22;7129;48.832;12.472;2022-09-09T09:06:01;16.70;99.90
14103;DHT22;7129;48.832;12.472;2022-09-09T09:11:07;16.60;99.90
14103;DHT22;7129;48.832;12.472;2022-09-09T09:16:17;16.50;99.90
14103;DHT22;7129;48.832;12.472;2022-09-09T09:21:32;16.20;99.90
14103;DHT22;7129;48.832;12.472;2022-09-09T09:26:38;16.30;99.90
14103;DHT22;7129;48.832;12.472;2022-09-09T09:31:42;16.10;99.90
14103;DHT22;7129;48.832;12.472;2022-09-09T09:36:53;16.10;99.90
14103;DHT22;7129;48.832;12.472;2022-09-09T09:41:57;16.10;99.90
14103;DHT22;7129;48.832;12.472;2022-09-09T09:47:10;16.30;99.90
14103;DHT22;7129;48.832;12.472;2022-09-09T09:52:17;16.30;99.90
14103;DHT22;7129;48.832;12.472;2022-09-09T09:57:26;16.10;99.90
14103;DHT22;7129;48.832;12.472;2022-09-09T10:02:37;15.80;99.90
14103;DHT22;7129;48.832;12.472;2022-09-09T10:07:40;16.00;99.90
14103;DHT22;7129;48.832;12.472;2022-09-09T10:12:53;15.90;99.90
14103;DHT22;7129;48.832;12.472;2022-09-09T10:18:04;15.80;99.90
14103;DHT22;7129;48.832;12.472;2022-09-09T10:23:20;15.50;99.90
14103;DHT22;7129;48.832;12.472;2022-09-09T10:28:51;15.40;99.90
14103;DHT22;7129;48.832;12.472;2022-09-09T10:34:02;15.50;99.90
14103;DHT22;7129;48.832;12.472;2022-09-09T10:39:18;15.60;99.90
14103;DHT22;7129;48.832;12.472;2022-09-09T10:44:53;15.70;99.90
14103;DHT22;7129;48.832;12.472;2022-09-09T10:50:09;15.60;99.90
14103;DHT22;7129;48.832;12.472;2022-09-09T10:55:17;15.60;99.90
14103;DHT22;7129;48.832;12.472;2022-09-09T11:00:23;15.70;99.90
14103;DHT22;7129;48.832;12.472;2022-09-09T11:05:28;15.60;99.90
14103;DHT22;7129;48.832;12.472;2022-09-09T11:10:37;15.80;99.90
14103;DHT22;7129;48.832;12.472;2022-09-09T11:15:45;15.90;99.90
14103;DHT22;7129;48.832;12.472;2022-09-09T11:20:53;16.10;99.90
14103;DHT22;7129;48.832;12.472;2022-09-09T11:26:00;16.30;99.90
14103;DHT22;7129;48.832;12.472;2022-09-09T11:31:21;16.40;99.90
14103;DHT22;7129;48.832;12.472;2022-09-09T11:36:49;16.40;99.90
14103;DHT22;7129;48.832;12.472;2022-09-09T11:41:54;16.50;99.90
14103;DHT22;7129;48.832;12.472;2022-09-09T11:47:20;16.70;99.90
14103;DHT22;7129;48.832;12.472;2022-09-09T11:52:37;16.80;99.90
14103;DHT22;7129;48.832;12.472;2022-09-09T11:57:39;16.90;99.90
14103;DHT22;7129;48.832;12.472;2022-09-09T12:02:49;17.10;99.90
14103;DHT22;7129;48.832;12.472;2022-09-09T12:07:52;17.30;99.90
14103;DHT22;7129;48.832;12.472;2022-09-09T12:13:08;17.50;99.90
14103;DHT22;7129;48.832;12.472;2022-09-09T12:18:14;17.70;99.90
14103;DHT22;7129;48.832;12.472;2022-09-09T12:23:25;17.80;99.90
14103;DHT22;7129;48.832;12.472;2022-09-09T12:28:51;17.80;99.90
14103;DHT22;7129;48.832;12.472;2022-09-09T12:34:04;18.10;99.90
14103;DHT22;7129;48.832;12.472;2022-09-09T12:39:17;18.30;99.90
14103;DHT22;7129;48.832;12.472;2022-09-09T12:44:21;18.40;99.90
14103;DHT22;7129;48.832;12.472;2022-09-09T12:49:29;18.70;99.90
14103;DHT22;7129;48.832;12.472;2022-09-09T12:54:35;18.90;99.90
14103;DHT22;7129;48.832;12.472;2022-09-09T12:59:40;18.80;99.90
14103;DHT22;7129;48.832;12.472;2022-09-09T13:04:43;19.30;99.90
14103;DHT22;7129;48.832;12.472;2022-09-09T13:09:48;19.50;99.90
14103;DHT22;7129;48.832;12.472;2022-09-09T13:14:52;19.70;99.90
14103;DHT22;7129;48.832;12.472;2022-09-09T13:19:57;19.60;99.90
14103;DHT22;7129;48.832;12.472;2022-09-09T13:25:04;19.90;99.90
14103;DHT22;7129;48.832;12.472;2022-09-09T13:30:23;19.90;99.90
14103;DHT22;7129;48.832;12.472;2022-09-09T13:35:27;20.20;99.90
14103;DHT22;7129;48.832;12.472;2022-09-09T13:40:29;20.30;99.90
14103;DHT22;7129;48.832;12.472;2022-09-09T13:45:31;20.20;99.90
14103;DHT22;7129;48.832;12.472;2022-09-09T13:50:36;20.40;99.90
14103;DHT22;7129;48.832;12.472;2022-09-09T13:55:38;20.40;99.90
14103;DHT22;7129;48.832;12.472;2022-09-09T14:00:40;20.40;99.90
14103;DHT22;7129;48.832;12.472;2022-09-09T14:05:45;20.70;99.90
14103;DHT22;7129;48.832;12.472;2022-09-09T14:10:47;20.80;99.90
14103;DHT22;7129;48.832;12.472;2022-09-09T14:15:49;20.90;99.90
14103;DHT22;7129;48.832;12.472;2022-09-09T14:20:52;21.00;99.90
14103;DHT22;7129;48.832;12.472;2022-09-09T14:25:54;20.90;99.90
14103;DHT22;7129;48.832;12.472;2022-09-09T14:30:59;20.80;99.90
14103;DHT22;7129;48.832;12.472;2022-09-09T14:36:04;20.80;99.90
14103;DHT22;7129;48.832;12.472;2022-09-09T14:41:06;20.90;99.90
14103;DHT22;7129;48.832;12.472;2022-09-09T14:46:09;21.00;99.90
14103;DHT22;7129;48.832;12.472;2022-09-09T14:51:14;21.10;99.90
14103;DHT22;7129;48.832;12.472;2022-09-09T14:56:19;21.40;99.90
14103;DHT22;7129;48.832;12.472;2022-09-09T15:01:23;21.30;99.50
14103;DHT22;7129;48.832;12.472;2022-09-09T15:06:30;21.10;99.90
14103;DHT22;7129;48.832;12.472;2022-09-09T15:11:36;20.90;99.90
14103;DHT22;7129;48.832;12.472;2022-09-09T15:16:38;20.70;99.90
14103;DHT22;7129;48.832;12.472;2022-09-09T15:21:42;20.50;99.90
14103;DHT22;7129;48.832;12.472;2022-09-09T15:26:44;20.50;99.90
14103;DHT22;7129;48.832;12.472;2022-09-09T15:31:46;20.60;99.90
14103;DHT22;7129;48.832;12.472;2022-09-09T15:36:49;20.50;99.90
14103;DHT22;7129;48.832;12.472;2022-09-09T15:41:51;20.60;99.90
14103;DHT22;7129;48.832;12.472;2022-09-09T15:46:53;20.50;99.90
14103;DHT22;7129;48.832;12.472;2022-09-09T15:51:58;20.40;99.90
14103;DHT22;7129;48.832;12.472;2022-09-09T15:57:05;20.20;99.90
14103;DHT22;7129;48.832;12.472;2022-09-09T16:02:07;20.10;99.90
14103;DHT22;7129;48.832;12.472;2022-09-09T16:07:11;20.00;99.90
14103;DHT22;7129;48.832;12.472;2022-09-09T16:12:13;20.00;99.90
14103;DHT22;7129;48.832;12.472;2022-09-09T16:17:16;20.00;99.90
14103;DHT22;7129;48.832;12.472;2022-09-09T16:22:20;19.90;99.90
14103;DHT22;7129;48.832;12.472;2022-09-09T16:27:22;19.80;99.90
14103;DHT22;7129;48.832;12.472;2022-09-09T16:32:24;19.70;99.90
14103;DHT22;7129;48.832;12.472;2022-09-09T16:37:27;19.70;99.90
14103;DHT22;7129;48.832;12.472;2022-09-09T16:42:30;19.60;99.90
14103;DHT22;7129;48.832;12.472;2022-09-09T16:47:32;19.60;99.90
14103;DHT22;7129;48.832;12.472;2022-09-09T16:52:36;19.50;99.90
14103;DHT22;7129;48.832;12.472;2022-09-09T16:57:37;19.50;99.90
14103;DHT22;7129;48.832;12.472;2022-09-09T17:02:39;19.40;99.90
14103;DHT22;7129;48.832;12.472;2022-09-09T17:07:43;19.50;99.90
14103;DHT22;7129;48.832;12.472;2022-09-09T17:12:44;19.40;99.90
14103;DHT22;7129;48.832;12.472;2022-09-09T17:17:46;19.30;99.90
14103;DHT22;7129;48.832;12.472;2022-09-09T17:22:50;19.10;99.90
14103;DHT22;7129;48.832;12.472;2022-09-09T17:27:52;18.70;99.90
14103;DHT22;7129;48.832;12.472;2022-09-09T17:32:54;18.50;99.90
14103;DHT22;7129;48.832;12.472;2022-09-09T17:37:57;18.20;99.90
14103;DHT22;7129;48.832;12.472;2022-09-09T17:42:59;18.30;99.90
14103;DHT22;7129;48.832;12.472;2022-09-09T17:48:02;18.30;99.90
14103;DHT22;7129;48.832;12.472;2022-09-09T17:53:05;18.30;99.90
14103;DHT22;7129;48.832;12.472;2022-09-09T17:58:07;18.20;99.90
14103;DHT22;7129;48.832;12.472;2022-09-09T18:03:09;18.30;99.90
14103;DHT22;7129;48.832;12.472;2022-09-09T18:08:12;18.30;99.90
14103;DHT22;7129;48.832;12.472;2022-09-09T18:13:14;18.20;99.90
14103;DHT22;7129;48.832;12.472;2022-09-09T18:18:16;18.10;99.90
14103;DHT22;7129;48.832;12.472;2022-09-09T18:23:20;18.20;99.90
14103;DHT22;7129;48.832;12.472;2022-09-09T18:28:21;18.10;99.90
14103;DHT22;7129;48.832;12.472;2022-09-09T18:33:23;17.90;99.90
14103;DHT22;7129;48.832;12.472;2022-09-09T18:38:26;18.00;99.90
14103;DHT22;7129;48.832;12.472;2022-09-09T18:43:28;18.00;99.90
14103;DHT22;7129;48.832;12.472;2022-09-09T18:48:31;17.90;99.90
14103;DHT22;7129;48.832;12.472;2022-09-09T18:53:34;17.90;99.90
14103;DHT22;7129;48.832;12.472;2022-09-09T18:58:37;17.90;99.90
14103;DHT22;7129;48.832;12.472;2022-09-09T19:03:39;18.00;99.90
14103;DHT22;7129;48.832;12.472;2022-09-09T19:08:45;18.00;99.90
14103;DHT22;7129;48.832;12.472;2022-09-09T19:13:49;18.00;99.90
14103;DHT22;7129;48.832;12.472;2022-09-09T19:18:51;17.80;99.90
14103;DHT22;7129;48.832;12.472;2022-09-09T19:23:56;17.80;99.90
14103;DHT22;7129;48.832;12.472;2022-09-09T19:29:00;17.80;99.90
14103;DHT22;7129;48.832;12.472;2022-09-09T19:34:02;17.80;99.90
14103;DHT22;7129;48.832;12.472;2022-09-09T19:39:06;17.70;99.90
14103;DHT22;7129;48.832;12.472;2022-09-09T19:44:11;17.60;99.90
14103;DHT22;7129;48.832;12.472;2022-09-09T19:49:14;17.60;99.90
14103;DHT22;7129;48.832;12.472;2022-09-09T19:54:18;17.50;99.90
14103;DHT22;7129;48.832;12.472;2022-09-09T19:59:20;17.40;99.90
14103;DHT22;7129;48.832;12.472;2022-09-09T20:04:22;17.30;99.90
14103;DHT22;7129;48.832;12.472;2022-09-09T20:09:25;17.30;99.90
14103;DHT22;7129;48.832;12.472;2022-09-09T20:14:29;17.30;99.90
14103;DHT22;7129;48.832;12.472;2022-09-09T20:19:31;17.30;99.90
14103;DHT22;7129;48.832;12.472;2022-09-09T20:24:35;17.20;99.90
14103;DHT22;7129;48.832;12.472;2022-09-09T20:29:37;17.00;99.90
14103;DHT22;7129;48.832;12.472;2022-09-09T20:34:39;16.90;99.90
14103;DHT22;7129;48.832;12.472;2022-09-09T20:39:42;17.00;99.90
14103;DHT22;7129;48.832;12.472;2022-09-09T20:44:45;16.90;99.90
14103;DHT22;7129;48.832;12.472;2022-09-09T20:49:47;16.80;99.90
14103;DHT22;7129;48.832;12.472;2022-09-09T20:54:50;16.80;99.90
14103;DHT22;7129;48.832;12.472;2022-09-09T20:59:53;16.80;99.90
14103;DHT22;7129;48.832;12.472;2022-09-09T21:04:55;16.80;99.90
14103;DHT22;7129;48.832;12.472;2022-09-09T21:09:59;16.80;99.90
14103;DHT22;7129;48.832;12.472;2022-09-09T21:15:01;16.70;99.90
14103;DHT22;7129;48.832;12.472;2022-09-09T21:20:04;16.70;99.90
14103;DHT22;7129;48.832;12.472;2022-09-09T21:25:09;16.70;99.90
14103;DHT22;7129;48.832;12.472;2022-09-09T21:30:13;16.60;99.90
14103;DHT22;7129;48.832;12.472;2022-09-09T21:35:15;16.70;99.90
14103;DHT22;7129;48.832;12.472;2022-09-09T21:40:20;16.60;99.90
14103;DHT22;7129;48.832;12.472;2022-09-09T21:45:22;16.60;99.90
14103;DHT22;7129;48.832;12.472;2022-09-09T21:50:24;16.60;99.90
14103;DHT22;7129;48.832;12.472;2022-09-09T21:55:32;16.50;99.90
14103;DHT22;7129;48.832;12.472;2022-09-09T22:00:47;16.50;99.90
14103;DHT22;7129;48.832;12.472;2022-09-09T22:05:50;16.60;99.90
14103;DHT22;7129;48.832;12.472;2022-09-09T22:10:53;16.50;99.90
14103;DHT22;7129;48.832;12.472;2022-09-09T22:15:55;16.40;99.90
14103;DHT22;7129;48.832;12.472;2022-09-09T22:20:58;16.30;99.90
14103;DHT22;7129;48.832;12.472;2022-09-09T22:26:02;16.20;99.90
14103;DHT22;7129;48.832;12.472;2022-09-09T22:31:04;16.20;99.90
14103;DHT22;7129;48.832;12.472;2022-09-09T22:36:06;16.20;99.90
14103;DHT22;7129;48.832;12.472;2022-09-09T22:41:10;16.20;99.90
14103;DHT22;7129;48.832;12.472;2022-09-09T22:46:14;16.10;99.90
14103;DHT22;7129;48.832;12.472;2022-09-09T22:51:16;16.10;99.90
14103;DHT22;7129;48.832;12.472;2022-09-09T22:56:19;16.00;99.90
14103;DHT22;7129;48.832;12.472;2022-09-09T23:01:22;16.00;99.90
14103;DHT22;7129;48.832;12.472;2022-09-09T23:06:26;16.00;99.90
14103;DHT22;7129;48.832;12.472;2022-09-09T23:11:31;16.00;99.90
14103;DHT22;7129;48.832;12.472;2022-09-09T23:16:35;16.10;99.90
14103;DHT22;7129;48.832;12.472;2022-09-09T23:21:39;16.10;99.90
14103;DHT22;7129;48.832;12.472;2022-09-09T23:26:43;16.10;99.90
14103;DHT22;7129;48.832;12.472;2022-09-09T23:31:45;16.10;99.90
14103;DHT22;7129;48.832;12.472;2022-09-09T23:36:48;16.00;99.90
14103;DHT22;7129;48.832;12.472;2022-09-09T23:41:51;16.10;99.90
14103;DHT22;7129;48.832;12.472;2022-09-09T23:46:53;16.00;99.90
14103;DHT22;7129;48.832;12.472;2022-09-09T23:51:54;16.00;99.90
14103;DHT22;7129;48.832;12.472;2022-09-09T23:56:59;15.90;99.90
